Airfield :
LOGIN :

Register | Disclaimer

   EN    FR    IT 

 










Legend :    VFR   Marginal VFR   IFR   Intensive IFR   Very Intensive IFR
Visi :
Ceiling :
>= 8 km
>= 3000ft
5 to 8 km
1000 to 3000 ft
1500m to 5 km
500 to 1000 ft
800 to 1500m
200 to 500 ft
< 800m
< 200 ft
Symbols :   Thunderstorms  Fog  Heavy snow  Heavy precipitations  Wind > 20 kt
SIGMETs :     Misc.  Thunderstorms  Icing  Turbulence  Mountain Waves  Volcanic Ashes







- Airport Elevation : 1260 ft
- IATA code : LDE
- Download approach charts


LFBT - Tarbes / Ossun

CURRENT METAR :
  • 201600Z AUTO VRB02KT 9999 -RA BKN006 OVC015 02/01 Q1002 TEMPO 3000 RA

EXPIRED METARs :
  • 201530Z AUTO 28003KT 9999 -RA BKN008 OVC014 02/01 Q1002 TEMPO 3000 RA
  • 201500Z AUTO 27005KT 7000 -RA OVC008/// ///TCU 03/01 Q1002 TEMPO 3000 RA BKN005
  • 201430Z AUTO 25005KT 7000 -RA BKN007/// OVC022/// ///TCU 03/02 Q1002 TEMPO 3000 RA BKN005
  • 201400Z AUTO 26003KT 210V310 5000 RA BR BKN009 BKN019 OVC029 04/02 Q1001 TEMPO BKN020
  • 201330Z AUTO 19004KT 8000 RA FEW008/// OVC033/// ///TCU 04/02 Q1001 TEMPO 3000 RA BKN020
  • 201300Z AUTO 22004KT 9000 -RA SCT028 OVC036 04/02 Q1001 TEMPO 3000 RA BKN005

TAF TAF LFBT
Valid from the 20 at 12:00 until the 21 at 12:00 UTC


201100Z 2012/2112 VRB02KT 8000 SCT008 OVC012
PROB40
TEMPO 2012/2021 3000 RA BKN005
PROB30
TEMPO 2012/2016 BKN020
PROB30 2021/2106 OVC003
No reported NOTAMs for that airfield.



MET'MAP, your aeronautical weather chart ! - Copyright ORBIFLY December 2007 - Disclaimer

ORBIFLY MET'MAP TEAM :

Programming & Development : Alexandra Zaïnal
Concept & Development : Baudouin d'Aumeries
Co-Development & Prog : Marc-Olivier Méhu
Technical & hardware support : Manuel Goepfert

Contact : metmap@orbifly.com




SOURCES & CREDITS :

   NOAA